createdAt,value
2019-01-27T00:00:57.734Z,983.62
2019-01-27T00:01:58.328Z,983.58
2019-01-27T00:02:58.914Z,983.50
2019-01-27T00:03:59.507Z,983.52
2019-01-27T00:05:00.104Z,983.50
2019-01-27T00:06:00.718Z,983.46
2019-01-27T00:07:01.314Z,983.49
2019-01-27T00:08:01.907Z,983.45
2019-01-27T00:09:02.494Z,983.39
2019-01-27T00:10:03.087Z,983.36
2019-01-27T00:11:03.674Z,983.51
2019-01-27T00:12:04.268Z,983.44
2019-01-27T00:13:04.868Z,983.37
2019-01-27T00:14:05.462Z,983.40
2019-01-27T00:15:06.050Z,983.43
2019-01-27T00:16:06.648Z,983.39
2019-01-27T00:17:07.231Z,983.32
2019-01-27T00:18:07.822Z,983.28
2019-01-27T00:19:08.420Z,983.26
2019-01-27T00:20:09.013Z,983.30
2019-01-27T00:21:09.605Z,983.30
2019-01-27T00:22:10.195Z,983.22
2019-01-27T00:23:10.791Z,983.25
2019-01-27T00:24:11.381Z,983.24
2019-01-27T00:25:11.977Z,983.21
2019-01-27T00:26:12.600Z,983.18
2019-01-27T00:27:13.166Z,983.18
2019-01-27T00:28:13.764Z,983.18
2019-01-27T00:29:14.352Z,983.17
2019-01-27T00:30:14.941Z,983.13
2019-01-27T00:31:15.543Z,983.10
2019-01-27T00:32:16.135Z,983.03
2019-01-27T00:33:16.728Z,983.06
2019-01-27T00:34:17.323Z,983.09
2019-01-27T00:35:17.910Z,983.04
2019-01-27T00:36:18.497Z,983.03
2019-01-27T00:37:19.090Z,983.00
2019-01-27T00:38:19.687Z,983.01
2019-01-27T00:39:20.276Z,982.99
2019-01-27T00:40:20.862Z,982.96
2019-01-27T00:41:21.451Z,982.94
2019-01-27T00:42:22.035Z,982.89
2019-01-27T00:43:22.636Z,982.89
2019-01-27T00:44:23.224Z,982.83
2019-01-27T00:45:23.813Z,982.83
2019-01-27T00:46:24.410Z,982.80
2019-01-27T00:47:25.004Z,982.78
2019-01-27T00:48:25.602Z,982.81
2019-01-27T00:49:26.182Z,982.77
2019-01-27T00:50:26.779Z,982.71
2019-01-27T00:51:27.374Z,982.71
2019-01-27T00:52:27.967Z,982.74
2019-01-27T00:53:28.555Z,982.72
2019-01-27T00:54:29.148Z,982.67
2019-01-27T00:55:29.743Z,982.70
2019-01-27T00:56:30.337Z,982.65
2019-01-27T00:57:30.926Z,982.67
2019-01-27T00:58:31.514Z,982.65
2019-01-27T00:59:32.110Z,982.66
2019-01-27T01:01:16.916Z,982.61
2019-01-27T01:02:17.514Z,982.59
2019-01-27T01:03:18.115Z,982.58
2019-01-27T01:04:18.715Z,982.56
2019-01-27T01:05:19.315Z,982.57
2019-01-27T01:06:19.916Z,982.47
2019-01-27T01:07:20.514Z,982.50
2019-01-27T01:08:21.115Z,982.43
2019-01-27T01:09:21.714Z,982.46
2019-01-27T01:10:22.314Z,982.44
2019-01-27T01:11:22.915Z,982.48
2019-01-27T01:12:23.515Z,982.34
2019-01-27T01:13:24.117Z,982.37
2019-01-27T01:14:24.713Z,982.30
2019-01-27T01:15:25.312Z,982.24
2019-01-27T01:16:25.911Z,982.14
2019-01-27T01:17:26.513Z,982.13
2019-01-27T01:18:27.111Z,982.17
2019-01-27T01:19:27.710Z,982.18
2019-01-27T01:20:28.332Z,982.12
2019-01-27T01:21:28.950Z,982.09
2019-01-27T01:22:29.552Z,982.13
2019-01-27T01:23:30.153Z,982.00
2019-01-27T01:24:30.771Z,981.87
2019-01-27T01:25:31.372Z,981.99
2019-01-27T01:26:31.974Z,981.92
2019-01-27T01:27:32.593Z,981.98
2019-01-27T01:28:33.193Z,981.87
2019-01-27T01:29:33.794Z,981.87
2019-01-27T01:30:34.395Z,981.91
2019-01-27T01:31:34.977Z,981.81
2019-01-27T01:32:35.565Z,981.74
2019-01-27T01:33:36.160Z,981.68
2019-01-27T01:34:36.744Z,981.82
2019-01-27T01:35:37.337Z,981.67
2019-01-27T01:36:37.931Z,981.48
2019-01-27T01:37:38.525Z,981.65
2019-01-27T01:38:39.120Z,981.55
2019-01-27T01:39:39.712Z,981.50
2019-01-27T01:40:40.309Z,981.51
2019-01-27T01:41:40.904Z,981.52
2019-01-27T01:42:41.494Z,981.43
2019-01-27T01:43:42.081Z,981.37
2019-01-27T01:44:42.667Z,981.45
2019-01-27T01:45:43.260Z,981.43
2019-01-27T01:46:43.856Z,981.32
2019-01-27T01:47:44.452Z,981.37
2019-01-27T01:48:45.043Z,981.27
2019-01-27T01:49:45.632Z,981.24
2019-01-27T01:50:46.217Z,981.29
2019-01-27T01:51:46.802Z,981.26
2019-01-27T01:52:47.395Z,981.20
2019-01-27T01:53:47.988Z,981.23
2019-01-27T01:54:48.585Z,981.15
2019-01-27T01:55:49.164Z,981.13
2019-01-27T01:56:49.757Z,981.17
2019-01-27T01:57:50.378Z,981.19
2019-01-27T01:58:50.957Z,981.04
2019-01-27T01:59:51.550Z,981.12
2019-01-27T02:00:52.142Z,981.08
2019-01-27T02:01:52.737Z,981.07
2019-01-27T02:02:53.325Z,981.02
2019-01-27T02:03:53.919Z,980.94
2019-01-27T02:04:54.517Z,980.99
2019-01-27T02:05:55.109Z,980.98
2019-01-27T02:06:55.699Z,980.99
2019-01-27T02:07:56.289Z,980.96
2019-01-27T02:08:56.882Z,981.02
2019-01-27T02:09:57.470Z,981.00
2019-01-27T02:10:58.064Z,980.85
2019-01-27T02:11:58.663Z,980.85
2019-01-27T02:12:59.247Z,980.90
2019-01-27T02:13:59.832Z,980.81
2019-01-27T02:15:00.426Z,980.77
2019-01-27T02:16:01.014Z,980.80
2019-01-27T02:17:01.608Z,980.79
2019-01-27T02:18:02.203Z,980.75
2019-01-27T02:19:02.796Z,980.72
2019-01-27T02:20:03.393Z,980.69
2019-01-27T02:21:03.987Z,980.70
2019-01-27T02:22:04.571Z,980.67
2019-01-27T02:23:05.168Z,980.63
2019-01-27T02:24:05.764Z,980.53
2019-01-27T02:25:06.362Z,980.65
2019-01-27T02:26:06.954Z,980.60
2019-01-27T02:27:07.546Z,980.65
2019-01-27T02:28:08.138Z,980.50
2019-01-27T02:29:08.726Z,980.40
2019-01-27T02:30:09.328Z,980.50
2019-01-27T02:31:09.932Z,980.49
2019-01-27T02:32:10.517Z,980.39
2019-01-27T02:33:11.116Z,980.37
2019-01-27T02:34:11.709Z,980.40
2019-01-27T02:35:12.293Z,980.33
2019-01-27T02:36:12.886Z,980.37
2019-01-27T02:37:13.482Z,980.35
2019-01-27T02:38:14.068Z,980.29
2019-01-27T02:39:14.655Z,980.25
2019-01-27T02:40:15.252Z,980.25
2019-01-27T02:41:15.850Z,980.23
2019-01-27T02:42:16.448Z,980.22
2019-01-27T02:43:17.037Z,980.21
2019-01-27T02:44:17.639Z,980.21
2019-01-27T02:45:18.228Z,980.14
2019-01-27T02:46:18.826Z,980.14
2019-01-27T02:47:19.409Z,980.16
2019-01-27T02:48:20.008Z,980.08
2019-01-27T02:49:20.602Z,980.05
2019-01-27T02:50:21.198Z,980.03
2019-01-27T02:51:21.790Z,980.01
2019-01-27T02:52:22.385Z,980.00
2019-01-27T02:53:22.966Z,980.07
2019-01-27T02:54:23.563Z,980.03
2019-01-27T02:55:24.146Z,979.99
2019-01-27T02:56:24.743Z,980.01
2019-01-27T02:57:25.343Z,979.96
2019-01-27T02:58:25.937Z,979.95
2019-01-27T02:59:26.534Z,979.86
2019-01-27T03:00:27.133Z,979.89
2019-01-27T03:01:27.712Z,979.87
2019-01-27T03:02:28.310Z,979.85
2019-01-27T03:03:28.907Z,979.72
2019-01-27T03:04:29.494Z,979.74
2019-01-27T03:05:30.083Z,979.76
2019-01-27T03:06:30.673Z,979.74
2019-01-27T03:07:31.274Z,979.72
2019-01-27T03:08:31.864Z,979.72
2019-01-27T03:09:32.461Z,979.78
2019-01-27T03:10:33.054Z,979.73
2019-01-27T03:11:33.642Z,979.70
2019-01-27T03:12:34.235Z,979.64
2019-01-27T03:13:34.834Z,979.72
2019-01-27T03:14:35.420Z,979.64
2019-01-27T03:15:36.017Z,979.57
2019-01-27T03:16:36.611Z,979.48
2019-01-27T03:17:37.205Z,979.54
2019-01-27T03:18:37.803Z,979.43
2019-01-27T03:19:38.389Z,979.39
2019-01-27T03:20:38.978Z,979.34
2019-01-27T03:21:39.574Z,979.37
2019-01-27T03:22:40.172Z,979.33
2019-01-27T03:23:40.766Z,979.34
2019-01-27T03:24:41.360Z,979.31
2019-01-27T03:25:41.949Z,979.36
2019-01-27T03:26:42.539Z,979.36
2019-01-27T03:27:43.131Z,979.39
2019-01-27T03:28:43.739Z,979.36
2019-01-27T03:29:44.320Z,979.24
2019-01-27T03:30:44.914Z,979.37
2019-01-27T03:31:45.507Z,979.44
2019-01-27T03:32:46.103Z,979.33
2019-01-27T03:33:46.695Z,979.27
2019-01-27T03:34:47.288Z,979.22
2019-01-27T03:35:47.885Z,979.17
2019-01-27T03:36:48.484Z,979.07
2019-01-27T03:37:49.104Z,979.10
2019-01-27T03:38:49.672Z,979.18
2019-01-27T03:39:50.266Z,979.16
2019-01-27T03:40:50.856Z,979.13
2019-01-27T03:41:51.455Z,979.18
2019-01-27T03:42:52.050Z,979.10
2019-01-27T03:43:52.645Z,979.16
2019-01-27T03:44:53.234Z,979.14
2019-01-27T03:45:53.821Z,979.18
2019-01-27T03:46:54.416Z,979.15
2019-01-27T03:47:55.011Z,979.17
2019-01-27T03:48:55.599Z,979.18
2019-01-27T03:49:56.186Z,979.17
2019-01-27T03:50:56.777Z,979.18
2019-01-27T03:51:57.369Z,979.13
2019-01-27T03:52:57.963Z,979.09
2019-01-27T03:53:58.557Z,979.10
2019-01-27T03:54:59.142Z,979.13
2019-01-27T03:55:59.737Z,979.12
2019-01-27T03:57:00.322Z,979.10
2019-01-27T03:58:00.914Z,979.08
2019-01-27T03:59:01.505Z,979.08
2019-01-27T04:00:02.098Z,979.10
2019-01-27T04:01:02.696Z,979.10
2019-01-27T04:02:03.289Z,979.11
2019-01-27T04:03:03.884Z,979.05
2019-01-27T04:04:04.484Z,979.05
2019-01-27T04:05:05.077Z,979.05
2019-01-27T04:06:05.678Z,979.05
2019-01-27T04:07:06.273Z,978.98
2019-01-27T04:08:06.866Z,978.98
2019-01-27T04:09:07.465Z,978.98
2019-01-27T04:10:08.052Z,978.87
2019-01-27T04:11:08.647Z,978.90
2019-01-27T04:12:09.238Z,978.86
2019-01-27T04:13:09.831Z,978.81
2019-01-27T04:14:10.427Z,978.78
2019-01-27T04:15:11.028Z,978.77
2019-01-27T04:16:11.617Z,978.71
2019-01-27T04:17:12.204Z,978.65
2019-01-27T04:18:12.800Z,978.73
2019-01-27T04:19:13.383Z,978.67
2019-01-27T04:20:13.977Z,978.75
2019-01-27T04:21:14.572Z,978.78
2019-01-27T04:22:15.165Z,978.68
2019-01-27T04:23:15.753Z,978.72
2019-01-27T04:24:16.388Z,978.70
2019-01-27T04:25:16.932Z,978.51
2019-01-27T04:26:17.515Z,978.44
2019-01-27T04:27:18.111Z,978.39
2019-01-27T04:28:18.707Z,978.44
2019-01-27T04:29:19.301Z,978.53
2019-01-27T04:30:19.887Z,978.58
2019-01-27T04:31:20.483Z,978.34
2019-01-27T04:32:21.073Z,978.38
2019-01-27T04:33:21.668Z,978.40
2019-01-27T04:34:22.266Z,978.40
2019-01-27T04:35:22.858Z,978.38
2019-01-27T04:36:23.456Z,978.37
2019-01-27T04:37:24.052Z,978.37
2019-01-27T04:38:24.643Z,978.43
2019-01-27T04:39:25.325Z,978.43
2019-01-27T04:40:25.820Z,978.41
2019-01-27T04:41:26.416Z,978.50
2019-01-27T04:42:26.997Z,978.47
2019-01-27T04:43:27.582Z,978.33
2019-01-27T04:44:28.180Z,978.33
2019-01-27T04:45:28.785Z,978.34
2019-01-27T04:46:29.360Z,978.30
2019-01-27T04:47:29.954Z,978.26
2019-01-27T04:48:30.549Z,978.20
2019-01-27T04:49:31.141Z,978.24
2019-01-27T04:50:31.736Z,978.26
2019-01-27T04:51:32.331Z,978.23
2019-01-27T04:52:32.942Z,978.24
2019-01-27T04:53:33.508Z,978.23
2019-01-27T04:54:34.099Z,978.22
2019-01-27T04:55:34.687Z,978.16
2019-01-27T04:56:35.277Z,978.17
2019-01-27T04:57:35.877Z,978.12
2019-01-27T04:58:36.467Z,978.09
2019-01-27T04:59:37.056Z,978.04
2019-01-27T05:00:37.651Z,978.06
2019-01-27T05:01:38.242Z,978.03
2019-01-27T05:02:38.837Z,978.03
2019-01-27T05:03:39.436Z,978.02
2019-01-27T05:04:40.027Z,978.05
2019-01-27T05:05:40.651Z,977.97
2019-01-27T05:06:41.219Z,977.90
2019-01-27T05:07:41.813Z,977.94
2019-01-27T05:08:42.410Z,977.95
2019-01-27T05:09:43.001Z,977.94
2019-01-27T05:10:43.597Z,977.95
2019-01-27T05:11:44.191Z,977.89
2019-01-27T05:12:44.782Z,977.85
2019-01-27T05:13:45.378Z,977.95
2019-01-27T05:14:45.969Z,977.92
2019-01-27T05:15:46.568Z,977.89
2019-01-27T05:16:47.160Z,977.90
2019-01-27T05:17:47.747Z,977.82
2019-01-27T05:18:48.332Z,977.86
2019-01-27T05:19:48.928Z,977.85
2019-01-27T05:20:49.524Z,977.84
2019-01-27T05:21:50.119Z,977.80
2019-01-27T05:22:50.707Z,977.86
2019-01-27T05:23:51.301Z,977.80
2019-01-27T05:24:51.901Z,977.78
2019-01-27T05:25:52.492Z,977.81
2019-01-27T05:26:53.084Z,977.76
2019-01-27T05:27:53.679Z,977.80
2019-01-27T05:28:54.272Z,977.84
2019-01-27T05:29:54.868Z,977.80
2019-01-27T05:30:55.463Z,977.76
2019-01-27T05:31:56.058Z,977.79
2019-01-27T05:32:56.649Z,977.71
2019-01-27T05:33:57.295Z,977.75
2019-01-27T05:34:57.837Z,977.75
2019-01-27T05:35:58.443Z,977.74
2019-01-27T05:36:59.022Z,977.75
2019-01-27T05:37:59.608Z,977.75
2019-01-27T05:39:00.207Z,977.81
2019-01-27T05:40:00.791Z,977.72
2019-01-27T05:41:01.385Z,977.73
2019-01-27T05:42:01.972Z,977.74
2019-01-27T05:43:02.566Z,977.82
2019-01-27T05:44:03.158Z,977.79
2019-01-27T05:45:03.752Z,977.72
2019-01-27T05:46:04.364Z,977.74
2019-01-27T05:47:04.942Z,977.74
2019-01-27T05:48:05.538Z,977.75
2019-01-27T05:49:06.129Z,977.63
2019-01-27T05:50:06.727Z,977.62
2019-01-27T05:51:07.320Z,977.61
2019-01-27T05:52:07.918Z,977.60
2019-01-27T05:53:08.499Z,977.61
2019-01-27T05:54:09.094Z,977.64
2019-01-27T05:55:09.684Z,977.58
2019-01-27T05:56:10.275Z,977.46
2019-01-27T05:57:10.860Z,977.48
2019-01-27T05:58:11.457Z,977.47
2019-01-27T05:59:12.054Z,977.53
2019-01-27T06:00:12.652Z,977.50
2019-01-27T06:01:13.246Z,977.45
2019-01-27T06:02:13.845Z,977.48
2019-01-27T06:03:14.431Z,977.42
2019-01-27T06:04:16.393Z,977.39
2019-01-27T06:05:15.613Z,977.34
2019-01-27T06:06:16.206Z,977.30
2019-01-27T06:07:16.802Z,977.23
2019-01-27T06:08:17.389Z,977.27
2019-01-27T06:09:17.974Z,977.18
2019-01-27T06:10:18.571Z,977.16
2019-01-27T06:11:19.164Z,977.15
2019-01-27T06:12:19.756Z,977.14
2019-01-27T06:13:20.341Z,977.16
2019-01-27T06:14:20.938Z,977.13
2019-01-27T06:15:21.522Z,977.15
2019-01-27T06:16:22.117Z,977.13
2019-01-27T06:17:22.712Z,977.17
2019-01-27T06:18:23.304Z,977.12
2019-01-27T06:19:23.897Z,977.19
2019-01-27T06:20:24.490Z,977.21
2019-01-27T06:21:25.085Z,977.20
2019-01-27T06:22:25.673Z,977.19
2019-01-27T06:23:26.264Z,977.21
2019-01-27T06:24:26.852Z,977.23
2019-01-27T06:25:27.445Z,977.26
2019-01-27T06:26:28.041Z,977.25
2019-01-27T06:27:28.635Z,977.22
2019-01-27T06:28:29.236Z,977.25
2019-01-27T06:29:29.821Z,977.27
2019-01-27T06:30:30.416Z,977.29
2019-01-27T06:31:31.011Z,977.26
2019-01-27T06:32:31.603Z,977.15
2019-01-27T06:33:32.188Z,977.14
2019-01-27T06:34:32.783Z,977.09
2019-01-27T06:35:33.376Z,977.06
2019-01-27T06:36:33.973Z,977.08
2019-01-27T06:37:34.563Z,977.05
2019-01-27T06:38:35.148Z,977.02
2019-01-27T06:39:35.747Z,976.98
2019-01-27T06:40:36.332Z,976.97
2019-01-27T06:41:36.928Z,976.97
2019-01-27T06:42:37.521Z,977.00
2019-01-27T06:43:38.118Z,977.01
2019-01-27T06:44:38.710Z,976.99
2019-01-27T06:45:39.297Z,977.00
2019-01-27T06:46:39.936Z,976.95
2019-01-27T06:47:40.485Z,976.91
2019-01-27T06:48:41.084Z,976.92
2019-01-27T06:49:41.676Z,976.96
2019-01-27T06:50:42.269Z,976.87
2019-01-27T06:51:42.863Z,976.89
2019-01-27T06:52:43.457Z,976.92
2019-01-27T06:53:44.045Z,976.90
2019-01-27T06:54:44.633Z,976.89
2019-01-27T06:55:45.228Z,976.90
2019-01-27T06:56:45.818Z,976.85
2019-01-27T06:57:46.403Z,976.82
2019-01-27T06:58:46.996Z,976.82
2019-01-27T06:59:47.587Z,976.85
2019-01-27T07:00:48.176Z,976.77
2019-01-27T07:01:48.764Z,976.78
2019-01-27T07:02:49.359Z,976.81
2019-01-27T07:03:49.943Z,976.86
2019-01-27T07:04:50.533Z,976.79
2019-01-27T07:05:51.118Z,976.75
2019-01-27T07:06:51.707Z,976.67
2019-01-27T07:07:52.306Z,976.71
2019-01-27T07:08:52.903Z,976.63
2019-01-27T07:09:53.487Z,976.52
2019-01-27T07:10:54.075Z,976.59
2019-01-27T07:11:54.665Z,976.66
2019-01-27T07:12:55.261Z,976.57
2019-01-27T07:13:55.850Z,976.58
2019-01-27T07:14:56.445Z,976.50
2019-01-27T07:15:57.032Z,976.54
2019-01-27T07:16:57.632Z,976.18
2019-01-27T07:17:58.231Z,976.54
2019-01-27T07:18:58.815Z,976.53
2019-01-27T07:19:59.412Z,976.49
2019-01-27T07:21:00.012Z,976.43
2019-01-27T07:22:00.608Z,976.48
2019-01-27T07:23:01.202Z,976.40
2019-01-27T07:24:01.802Z,976.46
2019-01-27T07:25:02.399Z,976.45
2019-01-27T07:26:03.028Z,976.47
2019-01-27T07:27:03.583Z,976.47
2019-01-27T07:28:04.174Z,976.38
2019-01-27T07:29:04.772Z,976.42
2019-01-27T07:30:05.369Z,976.45
2019-01-27T07:31:05.960Z,976.41
2019-01-27T07:32:06.558Z,976.39
2019-01-27T07:33:07.157Z,976.38
2019-01-27T07:34:07.758Z,976.36
2019-01-27T07:35:08.352Z,976.39
2019-01-27T07:36:08.957Z,976.36
2019-01-27T07:37:09.548Z,976.38
2019-01-27T07:38:10.146Z,976.34
2019-01-27T07:39:10.742Z,976.40
2019-01-27T07:40:11.339Z,976.39
2019-01-27T07:41:11.928Z,976.36
2019-01-27T07:42:12.527Z,976.35
2019-01-27T07:43:13.125Z,976.36
2019-01-27T07:44:13.716Z,976.34
2019-01-27T07:45:14.309Z,976.24
2019-01-27T07:46:14.907Z,976.31
2019-01-27T07:47:15.507Z,976.31
2019-01-27T07:48:16.110Z,976.26
2019-01-27T07:49:16.726Z,976.30
2019-01-27T07:50:17.296Z,976.29
2019-01-27T07:51:17.897Z,976.34
2019-01-27T07:52:18.499Z,976.26
2019-01-27T07:53:19.092Z,976.25
2019-01-27T07:54:19.691Z,976.24
2019-01-27T07:55:20.291Z,976.26
2019-01-27T07:56:20.939Z,976.23
2019-01-27T07:57:21.491Z,976.20
2019-01-27T07:58:22.082Z,976.08
2019-01-27T07:59:22.677Z,976.13
2019-01-27T08:00:23.265Z,976.10
2019-01-27T08:01:23.870Z,976.05
2019-01-27T08:02:24.462Z,976.06
2019-01-27T08:03:25.060Z,976.02
2019-01-27T08:04:25.656Z,976.05
2019-01-27T08:05:26.263Z,975.99
2019-01-27T08:06:26.863Z,976.07
2019-01-27T08:07:27.464Z,976.07
2019-01-27T08:08:28.059Z,976.05
2019-01-27T08:09:28.662Z,976.05
2019-01-27T08:10:29.269Z,976.03
2019-01-27T08:11:29.863Z,976.06
2019-01-27T08:12:30.473Z,976.07
2019-01-27T08:13:31.075Z,976.06
2019-01-27T08:14:31.680Z,976.05
2019-01-27T08:15:32.280Z,976.06
2019-01-27T08:16:32.873Z,976.03
2019-01-27T08:17:33.479Z,975.97
2019-01-27T08:18:34.081Z,976.05
2019-01-27T08:19:34.675Z,976.04
2019-01-27T08:20:35.277Z,976.05
2019-01-27T08:21:35.883Z,976.03
2019-01-27T08:22:36.484Z,976.07
2019-01-27T08:23:37.086Z,976.08
2019-01-27T08:24:37.712Z,976.00
2019-01-27T08:25:38.312Z,976.04
2019-01-27T08:26:38.900Z,975.97
2019-01-27T08:27:39.502Z,976.02
2019-01-27T08:28:40.093Z,976.03
2019-01-27T08:29:40.696Z,976.01
2019-01-27T08:30:41.299Z,976.04
2019-01-27T08:31:41.903Z,976.00
2019-01-27T08:32:42.503Z,975.98
2019-01-27T08:33:43.093Z,976.08
2019-01-27T08:34:43.684Z,976.05
2019-01-27T08:35:44.280Z,976.08
2019-01-27T08:36:44.879Z,976.02
2019-01-27T08:37:45.474Z,976.04
2019-01-27T08:38:46.078Z,976.05
2019-01-27T08:39:46.673Z,976.07
2019-01-27T08:40:47.279Z,976.08
2019-01-27T08:41:47.878Z,976.05
2019-01-27T08:42:48.473Z,976.01
2019-01-27T08:43:49.072Z,976.01
2019-01-27T08:44:49.665Z,975.98
2019-01-27T08:45:50.256Z,975.98
2019-01-27T08:46:50.860Z,975.98
2019-01-27T08:47:51.454Z,975.91
2019-01-27T08:48:52.061Z,975.98
2019-01-27T08:49:52.659Z,975.92
2019-01-27T08:50:53.264Z,975.89
2019-01-27T08:51:53.861Z,975.92
2019-01-27T08:52:54.454Z,975.94
2019-01-27T08:53:55.059Z,975.88
2019-01-27T08:54:55.668Z,975.90
2019-01-27T08:55:56.248Z,975.85
2019-01-27T08:56:56.851Z,975.90
2019-01-27T08:57:57.450Z,975.91
2019-01-27T08:58:58.050Z,975.92
2019-01-27T08:59:58.653Z,975.91
2019-01-27T09:00:59.250Z,975.86
2019-01-27T09:01:59.846Z,975.93
2019-01-27T09:03:00.437Z,975.90
2019-01-27T09:04:01.042Z,975.90
2019-01-27T09:05:01.649Z,975.92
2019-01-27T09:06:02.238Z,975.94
2019-01-27T09:07:02.845Z,975.90
2019-01-27T09:08:03.643Z,975.92
2019-01-27T09:09:04.255Z,975.87
2019-01-27T09:10:04.858Z,975.86
2019-01-27T09:11:05.450Z,975.85
2019-01-27T09:12:06.056Z,975.93
2019-01-27T09:13:11.179Z,975.89
2019-01-27T09:14:07.254Z,975.85
2019-01-27T09:15:07.894Z,975.84
2019-01-27T09:16:08.456Z,975.76
2019-01-27T09:17:09.063Z,975.73
2019-01-27T09:18:09.664Z,975.75
2019-01-27T09:19:10.281Z,975.77
2019-01-27T09:20:10.898Z,975.74
2019-01-27T09:21:11.490Z,975.72
2019-01-27T09:22:12.094Z,975.69
2019-01-27T09:23:12.693Z,975.68
2019-01-27T09:24:13.295Z,975.76
2019-01-27T09:25:13.891Z,975.73
2019-01-27T09:26:14.479Z,975.73
2019-01-27T09:27:15.076Z,975.71
2019-01-27T09:28:15.664Z,975.71
2019-01-27T09:29:16.313Z,975.73
2019-01-27T09:30:16.902Z,975.70
2019-01-27T09:31:17.501Z,975.63
2019-01-27T09:32:18.105Z,975.69
2019-01-27T09:33:18.695Z,975.69
2019-01-27T09:34:19.294Z,975.67
2019-01-27T09:35:19.893Z,975.66
2019-01-27T09:36:20.485Z,975.62
2019-01-27T09:37:21.089Z,975.65
2019-01-27T09:38:21.692Z,975.63
2019-01-27T09:39:22.289Z,975.68
2019-01-27T09:40:22.882Z,975.59
2019-01-27T09:41:23.484Z,975.60
2019-01-27T09:42:24.278Z,975.63
2019-01-27T09:43:24.873Z,975.66
2019-01-27T09:44:25.490Z,975.64
2019-01-27T09:45:26.064Z,975.57
2019-01-27T09:46:26.656Z,975.53
2019-01-27T09:47:27.253Z,975.55
2019-01-27T09:48:27.852Z,975.61
2019-01-27T09:49:28.454Z,975.59
2019-01-27T09:50:29.062Z,975.51
2019-01-27T09:51:29.661Z,975.58
2019-01-27T09:52:30.261Z,975.59
2019-01-27T09:53:30.870Z,975.54
2019-01-27T09:54:31.465Z,975.71
2019-01-27T09:55:32.067Z,975.67
2019-01-27T09:56:32.660Z,975.66
2019-01-27T09:57:33.263Z,975.67
2019-01-27T09:58:33.863Z,975.67
2019-01-27T09:59:34.465Z,975.68
2019-01-27T10:00:35.065Z,975.63
2019-01-27T10:01:35.669Z,975.68
2019-01-27T10:02:36.273Z,975.66
2019-01-27T10:03:36.876Z,975.74
2019-01-27T10:04:37.473Z,975.66
2019-01-27T10:05:38.073Z,975.66
2019-01-27T10:06:38.675Z,975.73
2019-01-27T10:07:39.277Z,975.69
2019-01-27T10:08:39.886Z,975.69
2019-01-27T10:09:40.483Z,975.81
2019-01-27T10:10:41.078Z,975.72
2019-01-27T10:11:41.701Z,975.67
2019-01-27T10:12:42.296Z,975.65
2019-01-27T10:13:42.899Z,975.70
2019-01-27T10:14:43.494Z,975.72
2019-01-27T10:15:44.097Z,975.64
2019-01-27T10:16:44.697Z,975.71
2019-01-27T10:17:45.294Z,975.74
2019-01-27T10:18:45.895Z,975.74
2019-01-27T10:19:46.497Z,975.74
2019-01-27T10:20:47.098Z,975.70
2019-01-27T10:21:47.707Z,975.61
2019-01-27T10:22:48.302Z,975.63
2019-01-27T10:23:48.904Z,975.60
2019-01-27T10:24:49.498Z,975.60
2019-01-27T10:25:50.143Z,975.62
2019-01-27T10:26:50.738Z,975.62
2019-01-27T10:27:51.333Z,975.54
2019-01-27T10:28:51.936Z,975.58
2019-01-27T10:29:52.537Z,975.57
2019-01-27T10:30:53.138Z,975.53
2019-01-27T10:31:53.737Z,975.56
2019-01-27T10:32:54.345Z,975.60
2019-01-27T10:33:54.945Z,975.60
2019-01-27T10:34:55.537Z,975.59
2019-01-27T10:35:56.140Z,975.55
2019-01-27T10:36:56.750Z,975.60
2019-01-27T10:37:57.354Z,975.61
2019-01-27T10:38:57.966Z,975.62
2019-01-27T10:39:58.557Z,975.48
2019-01-27T10:40:59.150Z,975.57
2019-01-27T10:41:59.751Z,975.59
2019-01-27T10:43:00.349Z,975.53
2019-01-27T10:44:00.969Z,975.52
2019-01-27T10:45:01.550Z,975.51
2019-01-27T10:46:02.181Z,975.40
2019-01-27T10:47:02.756Z,975.52
2019-01-27T10:48:03.357Z,975.52
2019-01-27T10:49:03.958Z,975.51
2019-01-27T10:50:04.561Z,975.51
2019-01-27T10:51:05.155Z,975.58
2019-01-27T10:52:05.752Z,975.51
2019-01-27T10:53:06.354Z,975.53
2019-01-27T10:54:07.011Z,975.52
2019-01-27T10:55:07.559Z,975.52
2019-01-27T10:56:08.154Z,975.56
2019-01-27T10:57:08.753Z,975.60
2019-01-27T10:58:09.353Z,975.48
2019-01-27T10:59:09.958Z,975.55
2019-01-27T11:00:10.566Z,975.47
2019-01-27T11:01:11.149Z,975.56
2019-01-27T11:02:11.740Z,975.53
2019-01-27T11:03:12.342Z,975.44
2019-01-27T11:04:12.938Z,975.46
2019-01-27T11:05:13.541Z,975.38
2019-01-27T11:06:14.136Z,975.43
2019-01-27T11:07:14.731Z,975.37
2019-01-27T11:08:15.324Z,975.39
2019-01-27T11:09:15.923Z,975.48
2019-01-27T11:10:16.523Z,975.44
2019-01-27T11:11:17.117Z,975.38
2019-01-27T11:12:17.707Z,975.47
2019-01-27T11:13:18.310Z,975.48
2019-01-27T11:14:18.905Z,975.48
2019-01-27T11:15:19.505Z,975.46
2019-01-27T11:16:20.109Z,975.45
2019-01-27T11:17:20.706Z,975.45
2019-01-27T11:18:21.318Z,975.42
2019-01-27T11:19:21.916Z,975.43
2019-01-27T11:20:22.513Z,975.41
2019-01-27T11:21:23.115Z,975.38
2019-01-27T11:22:23.702Z,975.44
2019-01-27T11:23:24.307Z,975.43
2019-01-27T11:24:25.022Z,975.38
2019-01-27T11:25:25.620Z,975.27
2019-01-27T11:26:26.237Z,975.28
2019-01-27T11:27:32.937Z,975.26
2019-01-27T11:28:27.409Z,975.34
2019-01-27T11:29:28.007Z,975.31
2019-01-27T11:30:28.607Z,975.20
2019-01-27T11:31:29.200Z,975.31
2019-01-27T11:32:29.796Z,975.26
2019-01-27T11:33:30.394Z,975.22
2019-01-27T11:34:30.993Z,975.28
2019-01-27T11:35:31.593Z,975.15
2019-01-27T11:36:32.192Z,975.28
2019-01-27T11:37:32.795Z,975.24
2019-01-27T11:38:33.397Z,975.25
2019-01-27T11:39:33.997Z,975.22
2019-01-27T11:40:34.598Z,975.22
2019-01-27T11:41:35.199Z,975.16
2019-01-27T11:42:35.798Z,975.17
2019-01-27T11:43:36.400Z,975.16
2019-01-27T11:44:36.997Z,975.18
2019-01-27T11:45:37.596Z,975.13
2019-01-27T11:46:38.188Z,975.19
2019-01-27T11:47:38.790Z,975.12
2019-01-27T11:48:39.394Z,975.16
2019-01-27T11:49:39.996Z,975.16
2019-01-27T11:50:40.598Z,975.13
2019-01-27T11:51:41.200Z,975.12
2019-01-27T11:52:41.792Z,975.12
2019-01-27T11:53:42.387Z,975.02
2019-01-27T11:54:42.986Z,975.05
2019-01-27T11:55:43.588Z,974.89
2019-01-27T11:56:44.199Z,974.94
2019-01-27T11:57:44.782Z,975.00
2019-01-27T11:58:45.380Z,974.94
2019-01-27T11:59:45.978Z,974.96
2019-01-27T12:00:46.584Z,974.96
2019-01-27T12:01:47.179Z,974.91
2019-01-27T12:02:47.787Z,974.95
2019-01-27T12:03:48.385Z,974.96
2019-01-27T12:04:48.988Z,974.90
2019-01-27T12:05:49.589Z,974.94
2019-01-27T12:06:50.194Z,974.88
2019-01-27T12:07:50.796Z,974.93
2019-01-27T12:08:51.395Z,974.89
2019-01-27T12:09:52.001Z,974.79
2019-01-27T12:10:52.608Z,974.87
2019-01-27T12:11:53.223Z,974.87
2019-01-27T12:12:53.812Z,974.80
2019-01-27T12:13:54.410Z,974.84
2019-01-27T12:14:55.010Z,974.89
2019-01-27T12:15:55.607Z,974.76
2019-01-27T12:16:56.199Z,974.77
2019-01-27T12:17:56.804Z,974.71
2019-01-27T12:18:57.402Z,974.75
2019-01-27T12:19:58.005Z,974.72
2019-01-27T12:20:58.642Z,974.73
2019-01-27T12:21:59.204Z,974.77
2019-01-27T12:22:59.806Z,974.77
2019-01-27T12:24:00.405Z,974.71
2019-01-27T12:25:01.010Z,974.74
2019-01-27T12:26:01.614Z,974.69
2019-01-27T12:27:02.222Z,974.63
2019-01-27T12:28:02.865Z,974.72
2019-01-27T12:29:03.459Z,974.74
2019-01-27T12:30:04.055Z,974.73
2019-01-27T12:31:04.665Z,974.71
2019-01-27T12:32:05.269Z,974.69
2019-01-27T12:33:05.869Z,974.76
2019-01-27T12:34:06.478Z,974.73
2019-01-27T12:35:07.068Z,974.66
2019-01-27T12:36:07.670Z,974.67
2019-01-27T12:37:08.277Z,974.64